Time;durP1;ratioP1;P1;durP2;ratioP2;P2;SDS_P1;SDS_P2;PMS_P1;PMS_P2;Temp;Humidity;BMP_temperature;BMP_pressure;BME280_temperature;BME280_humidity;BME280_pressure;Samples;Min_cycle;Max_cycle;Signal;HPM_P1;HPM_P2
2022/04/15 00:01:57;;;;;;;;;;;;;;;17.40;100.00;98279.81;5076189;28;19920;-72
2022/04/15 00:04:24;;;;;;;;;;;;;;;17.33;100.00;98277.50;5076206;28;19966;-72
2022/04/15 00:06:51;;;;;;;;;;;;;;;17.76;100.00;98281.56;5075402;28;19952;-72
2022/04/15 00:09:17;;;;;;;;;;;;;;;17.99;100.00;98276.28;5079509;28;20662;-72
2022/04/15 00:11:45;;;;;;;;;;;;;;;18.16;100.00;98266.47;5079208;28;19955;-72
2022/04/15 00:14:12;;;;;;;;;;;;;;;18.28;100.00;98268.63;5066654;28;19996;-72
2022/04/15 00:16:43;;;;;;;;;;;;;;;18.29;100.00;98268.31;5075944;28;19921;-72
2022/04/15 00:19:10;;;;;;;;;;;;;;;18.29;100.00;98267.50;5077637;28;19924;-72
2022/04/15 00:21:36;;;;;;;;;;;;;;;18.31;100.00;98263.41;5077563;28;19920;-72
2022/04/15 00:24:02;;;;;;;;;;;;;;;18.32;100.00;98270.41;5075260;28;19925;-72
2022/04/15 00:26:29;;;;;;;;;;;;;;;18.34;100.00;98267.41;5074044;28;20507;-73
2022/04/15 00:28:58;;;;;;;;;;;;;;;17.96;100.00;98260.66;5076997;28;19920;-74
2022/04/15 00:31:24;;;;;;;;;;;;;;;18.14;100.00;98249.72;5077957;28;19928;-73
2022/04/15 00:33:50;;;;;;;;;;;;;;;18.25;100.00;98264.63;5078703;28;20031;-73
2022/04/15 00:36:17;;;;;;;;;;;;;;;18.33;100.00;98255.78;5074955;28;19925;-73
2022/04/15 00:38:44;;;;;;;;;;;;;;;18.31;100.00;98257.19;5075282;28;19924;-73
2022/04/15 00:41:13;;;;;;;;;;;;;;;18.29;100.00;98268.31;5078123;28;19992;-73
2022/04/15 00:43:39;;;;;;;;;;;;;;;18.25;100.00;98275.44;5076896;28;19987;-73
2022/04/15 00:46:08;;;;;;;;;;;;;;;18.10;100.00;98278.47;5075859;28;19956;-73
2022/04/15 00:48:35;;;;;;;;;;;;;;;18.01;100.00;98272.16;5073601;28;19924;-73
2022/04/15 00:51:01;;;;;;;;;;;;;;;17.76;100.00;98278.09;5076695;28;19988;-74
2022/04/15 00:53:29;;;;;;;;;;;;;;;17.75;100.00;98280.00;5076732;28;20317;-73
2022/04/15 00:55:57;;;;;;;;;;;;;;;17.93;100.00;98282.88;5075465;28;19924;-73
2022/04/15 00:58:25;;;;;;;;;;;;;;;17.99;100.00;98284.38;5074557;28;19931;-73
2022/04/15 01:00:53;;;;;;;;;;;;;;;17.57;100.00;98286.28;5074975;28;20445;-73
2022/04/15 01:03:21;;;;;;;;;;;;;;;17.23;100.00;98289.31;5077483;28;19925;-73
2022/04/15 01:05:49;;;;;;;;;;;;;;;17.01;100.00;98297.25;5077416;28;19924;-73
2022/04/15 01:08:17;;;;;;;;;;;;;;;16.55;100.00;98309.81;5072780;28;19978;-74
2022/04/15 01:10:44;;;;;;;;;;;;;;;16.98;100.00;98291.63;5074468;28;19971;-72
2022/04/15 01:13:12;;;;;;;;;;;;;;;16.67;100.00;98304.78;5082257;28;20354;-73
2022/04/15 01:15:38;;;;;;;;;;;;;;;16.78;100.00;98292.75;5073736;28;20036;-73
2022/04/15 01:18:05;;;;;;;;;;;;;;;16.93;100.00;98297.13;5075574;28;19943;-73
2022/04/15 01:20:33;;;;;;;;;;;;;;;17.13;100.00;98286.78;5078096;28;19987;-74
2022/04/15 01:23:04;;;;;;;;;;;;;;;17.24;100.00;98293.59;5076327;28;19966;-73
2022/04/15 01:25:30;;;;;;;;;;;;;;;17.48;100.00;98287.25;5074508;28;19944;-73
2022/04/15 01:27:58;;;;;;;;;;;;;;;17.56;100.00;98291.97;5075664;28;20629;-72
2022/04/15 01:30:24;;;;;;;;;;;;;;;17.61;100.00;98292.69;5077215;28;19967;-72
2022/04/15 01:32:51;;;;;;;;;;;;;;;17.70;100.00;98282.78;5076592;28;19980;-72
2022/04/15 01:35:18;;;;;;;;;;;;;;;17.47;100.00;98286.44;5073457;28;19971;-71
2022/04/15 01:37:45;;;;;;;;;;;;;;;17.35;100.00;98299.63;5072325;28;19980;-71
2022/04/15 01:40:13;;;;;;;;;;;;;;;17.17;100.00;98297.78;5075675;28;19924;-71
2022/04/15 01:42:40;;;;;;;;;;;;;;;17.39;100.00;98307.94;5069513;28;20343;-72
2022/04/15 01:45:07;;;;;;;;;;;;;;;17.11;100.00;98296.28;5075153;28;20645;-72
2022/04/15 01:47:34;;;;;;;;;;;;;;;17.26;100.00;98304.91;5076903;28;19957;-71
2022/04/15 01:50:02;;;;;;;;;;;;;;;17.45;100.00;98299.44;5074793;28;19928;-71
2022/04/15 01:52:29;;;;;;;;;;;;;;;17.49;100.00;98296.94;5073426;28;19944;-72
2022/04/15 01:54:55;;;;;;;;;;;;;;;17.62;100.00;98297.00;5074257;28;19959;-71
2022/04/15 01:57:23;;;;;;;;;;;;;;;17.67;100.00;98298.81;5076735;28;19983;-72
2022/04/15 01:59:49;;;;;;;;;;;;;;;17.32;100.00;98312.91;5076536;28;19924;-71
2022/04/15 02:02:16;;;;;;;;;;;;;;;17.45;100.00;98304.03;5071805;28;19997;-72
2022/04/15 02:04:42;;;;;;;;;;;;;;;17.57;100.00;98307.09;5073135;28;19947;-71
2022/04/15 02:07:09;;;;;;;;;;;;;;;17.56;100.00;98302.78;5076272;28;19920;-72
2022/04/15 02:09:35;;;;;;;;;;;;;;;17.05;100.00;98300.94;5076829;28;20517;-71
2022/04/15 02:12:01;;;;;;;;;;;;;;;17.21;100.00;98310.38;5076600;28;19921;-72
2022/04/15 02:14:29;;;;;;;;;;;;;;;17.38;100.00;98307.13;5076719;28;20404;-72
2022/04/15 02:16:56;;;;;;;;;;;;;;;17.44;100.00;98305.94;5075406;28;19951;-72
2022/04/15 02:19:22;;;;;;;;;;;;;;;17.37;100.00;98302.00;5071985;28;19925;-71
2022/04/15 02:21:49;;;;;;;;;;;;;;;17.45;100.00;98306.75;5073380;28;19956;-72
2022/04/15 02:24:15;;;;;;;;;;;;;;;17.47;100.00;98305.34;5076426;28;19963;-72
2022/04/15 02:26:42;;;;;;;;;;;;;;;17.21;100.00;98313.06;5079715;28;19931;-72
2022/04/15 02:29:08;;;;;;;;;;;;;;;16.93;100.00;98305.97;5077345;28;19924;-72
2022/04/15 02:31:36;;;;;;;;;;;;;;;16.57;100.00;98310.31;5077075;28;19925;-71
2022/04/15 02:34:02;;;;;;;;;;;;;;;16.43;100.00;98317.50;5079115;28;19935;-71
2022/04/15 02:36:30;;;;;;;;;;;;;;;15.99;100.00;98310.53;5079874;28;20202;-71
2022/04/15 02:38:58;;;;;;;;;;;;;;;16.11;100.00;98316.31;5079279;28;19956;-71
2022/04/15 02:41:24;;;;;;;;;;;;;;;16.64;100.00;98310.78;5077251;28;19931;-71
2022/04/15 02:43:51;;;;;;;;;;;;;;;16.47;100.00;98313.13;5077067;28;20056;-71
2022/04/15 02:46:17;;;;;;;;;;;;;;;16.80;100.00;98312.16;5076804;28;19939;-72
2022/04/15 02:48:45;;;;;;;;;;;;;;;16.99;100.00;98309.44;5076096;28;19924;-71
2022/04/15 02:51:14;;;;;;;;;;;;;;;17.19;100.00;98317.19;5080005;28;20408;-72
2022/04/15 02:53:40;;;;;;;;;;;;;;;17.13;100.00;98318.34;5080111;28;19936;-72
2022/04/15 02:56:07;;;;;;;;;;;;;;;17.10;100.00;98322.44;5076249;28;19999;-71
2022/04/15 02:58:34;;;;;;;;;;;;;;;17.08;100.00;98313.81;5077106;28;19976;-71
2022/04/15 03:01:00;;;;;;;;;;;;;;;17.15;100.00;98322.34;5077999;28;19921;-71
2022/04/15 03:03:27;;;;;;;;;;;;;;;16.99;100.00;98321.00;5079422;28;19944;-71
2022/04/15 03:05:56;;;;;;;;;;;;;;;16.82;100.00;98323.44;5079743;28;19925;-71
2022/04/15 03:08:22;;;;;;;;;;;;;;;16.59;100.00;98317.03;5077420;28;19925;-71
2022/04/15 03:10:49;;;;;;;;;;;;;;;17.03;100.00;98313.94;5077774;28;19967;-71
2022/04/15 03:13:15;;;;;;;;;;;;;;;17.11;100.00;98325.97;5085071;28;19932;-71
2022/04/15 03:15:41;;;;;;;;;;;;;;;16.90;100.00;98335.44;5077024;28;19935;-71
2022/04/15 03:18:08;;;;;;;;;;;;;;;17.03;100.00;98324.72;5078964;28;19943;-71
2022/04/15 03:20:34;;;;;;;;;;;;;;;16.84;100.00;98329.34;5080638;28;19920;-71
2022/04/15 03:23:02;;;;;;;;;;;;;;;16.74;100.00;98332.97;5077266;28;19924;-71
2022/04/15 03:25:28;;;;;;;;;;;;;;;16.30;100.00;98334.41;5077271;28;19970;-72
2022/04/15 03:27:55;;;;;;;;;;;;;;;15.98;100.00;98341.25;5078076;28;19925;-71
2022/04/15 03:30:21;;;;;;;;;;;;;;;15.83;100.00;98340.59;5080449;28;19924;-71
2022/04/15 03:32:48;;;;;;;;;;;;;;;15.70;100.00;98350.16;5080279;28;19964;-71
2022/04/15 03:35:15;;;;;;;;;;;;;;;15.85;100.00;98352.69;5076749;28;20039;-71
2022/04/15 03:37:41;;;;;;;;;;;;;;;15.64;100.00;98354.81;5075612;28;20019;-71
2022/04/15 03:40:10;;;;;;;;;;;;;;;15.62;100.00;98356.19;5079626;28;19932;-71
2022/04/15 03:42:43;;;;;;;;;;;;;;;15.99;100.00;98364.41;5072507;28;19925;-71
2022/04/15 03:45:11;;;;;;;;;;;;;;;16.27;100.00;98345.75;5077591;28;19928;-71
2022/04/15 03:47:37;;;;;;;;;;;;;;;15.94;100.00;98361.75;5079058;28;19972;-71
2022/04/15 03:50:04;;;;;;;;;;;;;;;16.32;100.00;98353.75;5076744;28;19983;-71
2022/04/15 03:52:31;;;;;;;;;;;;;;;16.59;100.00;98357.47;5075757;28;19920;-71
2022/04/15 03:54:58;;;;;;;;;;;;;;;16.86;100.00;98373.03;5077253;28;19997;-71
2022/04/15 03:57:27;;;;;;;;;;;;;;;16.86;100.00;98359.53;5078139;28;19925;-71
2022/04/15 03:59:54;;;;;;;;;;;;;;;16.63;100.00;98363.91;5078380;28;20192;-71
2022/04/15 04:02:20;;;;;;;;;;;;;;;16.77;100.00;98369.38;5075401;28;19955;-71
2022/04/15 04:04:46;;;;;;;;;;;;;;;16.84;100.00;98367.09;5075859;28;20319;-71
2022/04/15 04:07:15;;;;;;;;;;;;;;;16.83;100.00;98370.09;5067327;28;19925;-71
2022/04/15 04:09:41;;;;;;;;;;;;;;;16.65;100.00;98377.88;5075796;28;19964;-71
2022/04/15 04:12:08;;;;;;;;;;;;;;;16.66;100.00;98374.09;5075346;28;20259;-71
2022/04/15 04:14:36;;;;;;;;;;;;;;;16.60;100.00;98380.66;5075541;28;19968;-71
2022/04/15 04:17:02;;;;;;;;;;;;;;;16.47;100.00;98377.81;5076056;28;19931;-71
2022/04/15 04:19:29;;;;;;;;;;;;;;;16.11;100.00;98394.44;5078605;28;20007;-71
2022/04/15 04:21:55;;;;;;;;;;;;;;;15.83;100.00;98387.19;5077828;28;19959;-71
2022/04/15 04:24:21;;;;;;;;;;;;;;;16.12;100.00;98385.25;5073794;28;20142;-71
2022/04/15 04:26:48;;;;;;;;;;;;;;;15.97;100.00;98395.38;5075697;28;19996;-71
2022/04/15 04:29:15;;;;;;;;;;;;;;;15.63;100.00;98390.88;5078812;28;19946;-71
2022/04/15 04:31:42;;;;;;;;;;;;;;;15.53;100.00;98387.50;5078387;28;19931;-71
2022/04/15 04:34:09;;;;;;;;;;;;;;;15.84;100.00;98393.41;5075038;28;19928;-71
2022/04/15 04:36:35;;;;;;;;;;;;;;;16.19;100.00;98383.03;5075056;28;19920;-71
2022/04/15 04:39:01;;;;;;;;;;;;;;;16.39;100.00;98386.56;5076592;28;19931;-71
2022/04/15 04:41:28;;;;;;;;;;;;;;;16.56;100.00;98392.28;5077950;28;19992;-71
2022/04/15 04:43:54;;;;;;;;;;;;;;;16.68;100.00;98392.69;5077339;28;19924;-71
2022/04/15 04:46:21;;;;;;;;;;;;;;;16.70;100.00;98399.41;5078360;28;19928;-71
2022/04/15 04:48:48;;;;;;;;;;;;;;;16.46;100.00;98397.81;5077560;28;20373;-72
2022/04/15 04:51:15;;;;;;;;;;;;;;;16.60;100.00;98410.31;5067344;28;19960;-71
2022/04/15 04:53:41;;;;;;;;;;;;;;;16.67;100.00;98402.69;5074209;28;20012;-71
2022/04/15 04:56:08;;;;;;;;;;;;;;;16.65;100.00;98404.84;5077167;28;19982;-71
2022/04/15 04:58:34;;;;;;;;;;;;;;;16.40;100.00;98407.06;5076383;28;19935;-71
2022/04/15 05:01:00;;;;;;;;;;;;;;;16.50;100.00;98405.00;5074493;28;20016;-69
2022/04/15 05:03:27;;;;;;;;;;;;;;;16.62;100.00;98410.81;5074214;28;19928;-70
2022/04/15 05:05:54;;;;;;;;;;;;;;;16.68;100.00;98414.28;5074776;28;19925;-70
2022/04/15 05:08:21;;;;;;;;;;;;;;;16.71;100.00;98414.47;5077527;28;19950;-70
2022/04/15 05:10:47;;;;;;;;;;;;;;;16.74;100.00;98415.81;5076395;28;20624;-70
2022/04/15 05:13:13;;;;;;;;;;;;;;;16.54;100.00;98414.19;5065982;28;19932;-70
2022/04/15 05:15:40;;;;;;;;;;;;;;;16.61;100.00;98420.03;5073900;28;19992;-70
2022/04/15 05:18:06;;;;;;;;;;;;;;;15.87;100.00;98423.25;5076576;28;19952;-70
2022/04/15 05:20:34;;;;;;;;;;;;;;;15.72;100.00;98425.28;5077352;28;19921;-70
2022/04/15 05:23:02;;;;;;;;;;;;;;;15.44;100.00;98435.72;5074333;28;19939;-71
2022/04/15 05:25:28;;;;;;;;;;;;;;;15.61;100.00;98427.25;5072331;28;20008;-71
2022/04/15 05:27:58;;;;;;;;;;;;;;;15.37;100.00;98443.31;5074488;28;20159;-71
2022/04/15 05:30:24;;;;;;;;;;;;;;;14.99;100.00;98442.22;5077030;28;19928;-71
2022/04/15 05:32:51;;;;;;;;;;;;;;;15.54;100.00;98446.44;5076530;28;19936;-70
2022/04/15 05:35:17;;;;;;;;;;;;;;;15.89;100.00;98442.63;5073406;28;19924;-70
2022/04/15 05:37:43;;;;;;;;;;;;;;;15.92;100.00;98450.13;5073617;28;19925;-70
2022/04/15 05:40:11;;;;;;;;;;;;;;;16.20;100.00;98446.63;5076693;28;19924;-71
2022/04/15 05:42:38;;;;;;;;;;;;;;;16.43;100.00;98444.22;5075747;28;19999;-71
2022/04/15 05:45:04;;;;;;;;;;;;;;;16.48;100.00;98442.25;5073320;28;19984;-71
2022/04/15 05:47:31;;;;;;;;;;;;;;;16.28;100.00;98445.16;5073611;28;19956;-71
2022/04/15 05:49:57;;;;;;;;;;;;;;;16.35;100.00;98448.34;5074813;28;19947;-71
2022/04/15 05:52:23;;;;;;;;;;;;;;;16.38;100.00;98447.75;5076811;28;19962;-71
2022/04/15 05:54:50;;;;;;;;;;;;;;;16.56;100.00;98449.72;5075333;28;19975;-71
2022/04/15 05:57:19;;;;;;;;;;;;;;;16.71;100.00;98456.84;5073159;28;20066;-73
2022/04/15 05:59:45;;;;;;;;;;;;;;;16.19;100.00;98453.09;5073092;28;19925;-70
2022/04/15 06:02:12;;;;;;;;;;;;;;;15.95;100.00;98454.16;5076820;28;19996;-70
2022/04/15 06:04:38;;;;;;;;;;;;;;;16.16;100.00;98450.97;5076600;28;19996;-70
2022/04/15 06:07:04;;;;;;;;;;;;;;;16.32;100.00;98453.50;5073069;28;20016;-70
2022/04/15 06:09:31;;;;;;;;;;;;;;;16.34;100.00;98452.09;5073388;28;20007;-70
2022/04/15 06:11:57;;;;;;;;;;;;;;;15.89;100.00;98456.09;5073212;28;19960;-70
2022/04/15 06:14:25;;;;;;;;;;;;;;;16.10;100.00;98462.88;5073232;28;19999;-70
2022/04/15 06:16:52;;;;;;;;;;;;;;;15.89;100.00;98456.09;5073432;28;19924;-70
2022/04/15 06:19:18;;;;;;;;;;;;;;;15.45;100.00;98463.44;5076834;28;19925;-70
2022/04/15 06:21:45;;;;;;;;;;;;;;;15.07;100.00;98463.16;5076847;28;19925;-70
2022/04/15 06:24:11;;;;;;;;;;;;;;;15.37;100.00;98464.03;5073445;28;19970;-70
2022/04/15 06:26:37;;;;;;;;;;;;;;;15.00;100.00;98467.25;5073229;28;20394;-70
2022/04/15 06:29:04;;;;;;;;;;;;;;;14.88;100.00;98472.97;5075373;28;19924;-70
2022/04/15 06:31:32;;;;;;;;;;;;;;;14.81;100.00;98485.09;5076651;28;19924;-70
2022/04/15 06:33:58;;;;;;;;;;;;;;;14.92;100.00;98475.88;5074937;28;19988;-70
2022/04/15 06:36:24;;;;;;;;;;;;;;;14.92;100.00;98474.00;5071997;28;19984;-70
2022/04/15 06:38:51;;;;;;;;;;;;;;;15.35;100.00;98480.44;5073733;28;19943;-70
2022/04/15 06:41:17;;;;;;;;;;;;;;;15.51;100.00;98478.50;5076945;28;19924;-70
2022/04/15 06:43:44;;;;;;;;;;;;;;;15.35;100.00;98476.97;5076647;28;19924;-70
2022/04/15 06:46:10;;;;;;;;;;;;;;;15.41;100.00;98475.88;5074317;28;19940;-70
2022/04/15 06:48:38;;;;;;;;;;;;;;;15.26;100.00;98473.25;5073552;28;19997;-70
2022/04/15 06:51:04;;;;;;;;;;;;;;;15.06;100.00;98490.34;5074987;28;20012;-70
2022/04/15 06:53:30;;;;;;;;;;;;;;;15.09;100.00;98489.78;5076381;28;19955;-70
2022/04/15 06:55:57;;;;;;;;;;;;;;;15.08;100.00;98488.16;5073861;28;19924;-70
2022/04/15 06:58:23;;;;;;;;;;;;;;;14.83;100.00;98499.84;5071538;28;19932;-70
2022/04/15 07:00:51;;;;;;;;;;;;;;;14.88;100.00;98494.47;5071777;28;19941;-70
2022/04/15 07:03:18;;;;;;;;;;;;;;;15.03;100.00;98499.78;5076525;28;19924;-70
2022/04/15 07:05:46;;;;;;;;;;;;;;;14.97;100.00;98497.38;5076381;28;19924;-70
2022/04/15 07:08:12;;;;;;;;;;;;;;;14.88;100.00;98499.84;5072767;28;19925;-70
2022/04/15 07:10:39;;;;;;;;;;;;;;;15.22;100.00;98488.38;5071606;28;19925;-71
2022/04/15 07:13:06;;;;;;;;;;;;;;;15.29;100.00;98491.56;5082625;28;19924;-70
2022/04/15 07:15:32;;;;;;;;;;;;;;;15.26;100.00;98484.00;5076229;28;19936;-70
2022/04/15 07:17:59;;;;;;;;;;;;;;;15.38;100.00;98481.81;5077231;28;19925;-70
2022/04/15 07:20:26;;;;;;;;;;;;;;;15.54;100.00;98478.72;5079237;28;19921;-71
2022/04/15 07:22:57;;;;;;;;;;;;;;;15.50;100.00;98479.59;5078445;28;19931;-71
2022/04/15 07:25:23;;;;;;;;;;;;;;;15.42;100.00;98486.34;5075439;28;19935;-71
2022/04/15 07:27:50;;;;;;;;;;;;;;;15.59;100.00;98480.59;5075054;28;19983;-71
2022/04/15 07:30:17;;;;;;;;;;;;;;;15.87;100.00;98482.53;5079710;28;19936;-71
2022/04/15 07:32:44;;;;;;;;;;;;;;;15.63;100.00;98477.03;5079578;28;19920;-71
2022/04/15 07:35:10;;;;;;;;;;;;;;;15.73;100.00;98481.53;5076358;28;20325;-71
2022/04/15 07:37:37;;;;;;;;;;;;;;;15.76;100.00;98483.69;5075917;28;19925;-71
2022/04/15 07:40:05;;;;;;;;;;;;;;;15.78;100.00;98491.50;5078226;28;20718;-71
2022/04/15 07:42:32;;;;;;;;;;;;;;;15.87;100.00;98479.81;5072931;28;19996;-72
2022/04/15 07:44:58;;;;;;;;;;;;;;;16.08;100.00;98485.81;5075704;28;19921;-71
2022/04/15 07:47:26;;;;;;;;;;;;;;;16.31;100.00;98476.16;5078090;28;19924;-71
2022/04/15 07:49:52;;;;;;;;;;;;;;;16.05;100.00;98481.81;5078480;28;19921;-71
2022/04/15 07:52:18;;;;;;;;;;;;;;;16.17;100.00;98487.63;5076004;28;20410;-70
2022/04/15 07:54:46;;;;;;;;;;;;;;;15.92;100.00;98487.84;5075832;28;19963;-70
2022/04/15 07:57:13;;;;;;;;;;;;;;;16.16;100.00;98483.31;5079016;28;19924;-70
2022/04/15 07:59:40;;;;;;;;;;;;;;;16.51;100.00;98484.00;5078982;28;19999;-70
2022/04/15 08:02:06;;;;;;;;;;;;;;;16.46;100.00;98492.16;5076396;28;19931;-71
2022/04/15 08:04:34;;;;;;;;;;;;;;;16.02;100.00;98485.06;5075385;28;20660;-70
2022/04/15 08:07:00;;;;;;;;;;;;;;;15.98;100.00;98478.63;5076010;28;19929;-70
2022/04/15 08:09:27;;;;;;;;;;;;;;;15.95;100.00;98483.78;5079091;28;20030;-71
2022/04/15 08:11:54;;;;;;;;;;;;;;;16.09;100.00;98482.81;5077616;28;19963;-71
2022/04/15 08:14:22;;;;;;;;;;;;;;;16.18;100.00;98488.41;5075119;28;20337;-71
2022/04/15 08:16:48;;;;;;;;;;;;;;;16.22;100.00;98486.75;5073714;28;19920;-71
2022/04/15 08:19:14;;;;;;;;;;;;;;;16.09;100.00;98482.03;5066935;28;20457;-71
2022/04/15 08:21:41;;;;;;;;;;;;;;;16.17;100.00;98484.91;5074937;28;19929;-71
2022/04/15 08:24:07;;;;;;;;;;;;;;;16.14;100.00;98490.88;5076809;28;19948;-71
2022/04/15 08:26:34;;;;;;;;;;;;;;;16.38;100.00;98488.19;5076719;28;19924;-71
2022/04/15 08:29:00;;;;;;;;;;;;;;;16.36;100.00;98490.38;5076521;28;19966;-71
2022/04/15 08:31:28;;;;;;;;;;;;;;;16.34;100.00;98487.16;5074604;28;19988;-71
2022/04/15 08:33:54;;;;;;;;;;;;;;;16.31;100.00;98495.81;5075571;28;20000;-71
2022/04/15 08:36:20;;;;;;;;;;;;;;;16.44;100.00;98486.25;5078395;28;19950;-71
2022/04/15 08:38:47;;;;;;;;;;;;;;;16.42;100.00;98491.13;5077757;28;19925;-71
2022/04/15 08:41:14;;;;;;;;;;;;;;;16.57;100.00;98488.28;5074443;28;19952;-71
2022/04/15 08:43:41;;;;;;;;;;;;;;;16.62;100.00;98493.59;5073052;28;20148;-70
2022/04/15 08:46:08;;;;;;;;;;;;;;;16.84;100.00;98488.50;5076824;28;19925;-70
2022/04/15 08:48:36;;;;;;;;;;;;;;;16.90;100.00;98486.53;5077702;28;19992;-69
2022/04/15 08:51:04;;;;;;;;;;;;;;;17.10;100.00;98484.38;5075444;28;20203;-70
2022/04/15 08:53:32;;;;;;;;;;;;;;;17.15;100.00;98488.88;5073959;28;19931;-70
2022/04/15 08:55:58;;;;;;;;;;;;;;;17.11;100.00;98482.50;5075376;28;19997;-71
2022/04/15 08:58:27;;;;;;;;;;;;;;;17.32;100.00;98481.09;5076844;28;20039;-70
2022/04/15 09:00:53;;;;;;;;;;;;;;;17.39;100.00;98489.63;5075761;28;19932;-70
2022/04/15 09:03:19;;;;;;;;;;;;;;;17.37;100.00;98486.41;5074272;28;19932;-70
2022/04/15 09:05:49;;;;;;;;;;;;;;;17.37;100.00;98491.81;5074218;28;20000;-70
2022/04/15 09:08:15;;;;;;;;;;;;;;;17.49;100.00;98480.56;5066032;28;19959;-70
2022/04/15 09:10:42;;;;;;;;;;;;;;;17.41;100.00;98475.84;5072655;28;19936;-70
2022/04/15 09:13:19;;;;;;;;;;;;;;;17.55;100.00;98468.59;5075149;28;19928;-69
2022/04/15 09:15:45;;;;;;;;;;;;;;;17.69;100.00;98461.38;5076467;28;19931;-70
2022/04/15 09:18:26;;;;;;;;;;;;;;;17.92;100.00;98463.13;5074516;28;19924;-70
2022/04/15 09:20:54;;;;;;;;;;;;;;;18.04;100.00;98468.84;5074422;28;19995;-70
2022/04/15 09:23:26;;;;;;;;;;;;;;;18.17;100.00;98461.88;5076134;28;19950;-70
2022/04/15 09:25:53;;;;;;;;;;;;;;;18.25;100.00;98461.19;5076748;28;19931;-70
2022/04/15 09:28:19;;;;;;;;;;;;;;;18.17;100.00;98459.16;5073541;28;20004;-71
2022/04/15 09:30:46;;;;;;;;;;;;;;;17.80;100.00;98466.31;5073896;28;19953;-71
2022/04/15 09:33:12;;;;;;;;;;;;;;;17.57;100.00;98461.03;5076977;28;19930;-70
2022/04/15 09:35:44;;;;;;;;;;;;;;;17.78;100.00;98465.00;5074987;28;19979;-70
2022/04/15 09:38:11;;;;;;;;;;;;;;;17.78;100.00;98459.59;5074047;28;20080;-71
2022/04/15 09:40:38;;;;;;;;;;;;;;;17.75;100.00;98455.59;5073959;28;19925;-70
2022/04/15 09:43:06;;;;;;;;;;;;;;;17.69;100.00;98461.38;5073982;28;19956;-70
2022/04/15 09:45:34;;;;;;;;;;;;;;;17.77;100.00;98466.09;5076870;28;19925;-70
2022/04/15 09:48:01;;;;;;;;;;;;;;;17.78;100.00;98449.59;5073917;28;19925;-70
2022/04/15 09:50:28;;;;;;;;;;;;;;;17.98;100.00;98459.22;5073121;28;19963;-71
2022/04/15 09:52:56;;;;;;;;;;;;;;;18.14;97.75;98462.47;5073343;28;19964;-70
2022/04/15 09:55:24;;;;;;;;;;;;;;;18.37;94.39;98458.00;5076995;28;19939;-70
2022/04/15 09:57:51;;;;;;;;;;;;;;;18.44;91.04;98458.41;5076900;28;19925;-70
2022/04/15 10:00:18;;;;;;;;;;;;;;;18.72;92.13;98452.69;5073716;28;19921;-70
2022/04/15 10:02:45;;;;;;;;;;;;;;;18.40;94.18;98441.16;5073644;28;19929;-71
2022/04/15 10:05:13;;;;;;;;;;;;;;;18.62;90.45;98441.28;5075124;28;19931;-70
2022/04/15 10:07:40;;;;;;;;;;;;;;;18.73;90.83;98448.06;5075540;28;19967;-70
2022/04/15 10:10:08;;;;;;;;;;;;;;;18.66;90.50;98440.38;5073099;28;19991;-70
2022/04/15 10:12:39;;;;;;;;;;;;;;;18.43;92.29;98437.84;5079761;28;19956;-71
2022/04/15 10:15:07;;;;;;;;;;;;;;;18.59;89.36;98448.09;5074584;28;19974;-71
2022/04/15 10:17:34;;;;;;;;;;;;;;;18.40;95.23;98443.88;5073454;28;19924;-70
2022/04/15 10:20:01;;;;;;;;;;;;;;;18.44;97.68;98450.28;5074846;28;19937;-71
2022/04/15 10:22:27;;;;;;;;;;;;;;;18.30;96.42;98453.78;5076874;28;19987;-71
2022/04/15 10:24:53;;;;;;;;;;;;;;;18.32;93.07;98448.88;5076013;28;19991;-70
2022/04/15 10:27:24;;;;;;;;;;;;;;;18.48;94.48;98448.56;5071913;28;20653;-71
2022/04/15 10:30:01;;;;;;;;;;;;;;;18.60;91.63;98438.09;5074051;28;19925;-71
2022/04/15 10:32:27;;;;;;;;;;;;;;;18.82;85.30;98438.16;5076443;28;19925;-71
2022/04/15 10:34:54;;;;;;;;;;;;;;;18.81;85.36;98439.28;5075699;28;19925;-71
2022/04/15 10:37:45;;;;;;;;;;;;;;;18.84;77.72;98427.84;5073207;28;19928;-71
2022/04/15 10:40:21;;;;;;;;;;;;;;;18.91;81.68;98433.63;5075006;28;19924;-71
2022/04/15 10:42:48;;;;;;;;;;;;;;;19.09;84.34;98423.75;5076890;28;20019;-71
2022/04/15 10:45:26;;;;;;;;;;;;;;;19.24;81.75;98421.50;5065053;28;19928;-71
2022/04/15 10:47:58;;;;;;;;;;;;;;;19.36;84.08;98429.88;5075935;28;19925;-70
2022/04/15 10:50:26;;;;;;;;;;;;;;;19.51;78.98;98426.03;5080726;28;20563;-71
2022/04/15 10:52:52;;;;;;;;;;;;;;;19.55;77.33;98423.50;5080086;28;19987;-71
2022/04/15 10:55:19;;;;;;;;;;;;;;;19.59;74.90;98422.56;5077124;28;20620;-71
2022/04/15 10:57:46;;;;;;;;;;;;;;;19.70;73.83;98421.22;5075872;28;19924;-71
2022/04/15 11:02:59;;;;;;;;;;;;;;;19.90;72.49;98422.59;5077035;28;19942;-72
2022/04/15 11:05:33;;;;;;;;;;;;;;;19.82;67.04;98418.75;5075164;28;19987;-72
2022/04/15 11:08:00;;;;;;;;;;;;;;;19.81;70.81;98413.63;5077828;28;19925;-72
2022/04/15 11:10:42;;;;;;;;;;;;;;;19.87;72.29;98417.78;5079553;28;20015;-72
2022/04/15 11:13:09;;;;;;;;;;;;;;;19.87;78.34;98412.38;5075385;28;19960;-72
2022/04/15 11:15:54;;;;;;;;;;;;;;;19.86;77.40;98406.19;5076093;28;19928;-72
2022/04/15 11:18:22;;;;;;;;;;;;;;;20.01;75.86;98413.09;5064358;28;19929;-71
2022/04/15 11:20:49;;;;;;;;;;;;;;;20.02;68.13;98409.28;5072607;28;19928;-73
2022/04/15 11:23:16;;;;;;;;;;;;;;;19.79;73.48;98410.44;5079512;28;19925;-72
2022/04/15 11:25:54;;;;;;;;;;;;;;;19.72;78.99;98410.06;5078965;28;19964;-72
2022/04/15 11:28:23;;;;;;;;;;;;;;;19.67;81.51;98410.19;5069581;28;19925;-72
2022/04/15 11:30:50;;;;;;;;;;;;;;;19.43;81.85;98407.81;5075575;28;19925;-72
2022/04/15 11:33:17;;;;;;;;;;;;;;;19.37;80.68;98409.78;5080051;28;20384;-73
2022/04/15 11:35:45;;;;;;;;;;;;;;;19.48;80.79;98404.16;5080195;28;19925;-72
2022/04/15 11:38:12;;;;;;;;;;;;;;;19.56;82.54;98404.22;5076807;28;20027;-72
2022/04/15 11:40:43;;;;;;;;;;;;;;;19.45;81.83;98399.38;5076116;28;19932;-72
2022/04/15 11:43:09;;;;;;;;;;;;;;;19.42;81.38;98413.53;5084033;28;19928;-72
2022/04/15 11:45:37;;;;;;;;;;;;;;;19.31;77.60;98405.59;5076557;28;19955;-73
2022/04/15 11:48:20;;;;;;;;;;;;;;;19.15;81.78;98407.09;5078564;28;19925;-72
2022/04/15 11:50:49;;;;;;;;;;;;;;;19.28;82.34;98406.22;5079430;28;20178;-71
2022/04/15 11:53:16;;;;;;;;;;;;;;;19.60;80.19;98407.13;5054870;28;19995;-71
2022/04/15 11:55:49;;;;;;;;;;;;;;;19.54;81.39;98403.75;5071424;28;19924;-72
2022/04/15 11:58:16;;;;;;;;;;;;;;;19.82;78.24;98388.94;5067158;28;19921;-72
2022/04/15 12:00:43;;;;;;;;;;;;;;;19.88;79.88;98398.53;5076158;28;19925;-72
2022/04/15 12:03:12;;;;;;;;;;;;;;;19.92;80.10;98393.28;5078589;28;19925;-74
2022/04/15 12:05:38;;;;;;;;;;;;;;;19.89;80.44;98392.00;5079008;28;20401;-71
2022/04/15 12:08:08;;;;;;;;;;;;;;;19.74;79.42;98392.41;5076727;28;19925;-71
2022/04/15 12:10:38;;;;;;;;;;;;;;;19.81;80.09;98392.75;5075473;28;19928;-70
2022/04/15 12:13:04;;;;;;;;;;;;;;;19.88;81.46;98384.16;5076994;28;19929;-72
2022/04/15 12:15:32;;;;;;;;;;;;;;;19.98;79.28;98397.47;5078799;28;19948;-71
2022/04/15 12:17:59;;;;;;;;;;;;;;;19.77;77.44;98380.94;5077313;28;19921;-72
2022/04/15 12:20:25;;;;;;;;;;;;;;;19.51;72.60;98390.81;5075171;28;20421;-71
2022/04/15 12:22:52;;;;;;;;;;;;;;;19.60;63.20;98388.16;5075590;28;19929;-71
2022/04/15 12:25:20;;;;;;;;;;;;;;;19.63;63.50;98385.63;5078447;28;20309;-70
2022/04/15 12:27:47;;;;;;;;;;;;;;;19.67;62.96;98370.34;5078557;28;19924;-71
2022/04/15 12:30:14;;;;;;;;;;;;;;;19.59;63.56;98373.03;5074999;28;19924;-72
2022/04/15 12:32:40;;;;;;;;;;;;;;;19.66;62.37;98368.75;5073455;28;19920;-71
2022/04/15 12:35:10;;;;;;;;;;;;;;;19.82;65.19;98366.44;5077144;28;19927;-72
2022/04/15 12:37:38;;;;;;;;;;;;;;;19.75;69.87;98366.06;5078186;28;19955;-74
2022/04/15 12:40:06;;;;;;;;;;;;;;;19.81;73.13;98359.41;5075841;28;19924;-72
2022/04/15 12:42:34;;;;;;;;;;;;;;;20.02;72.08;98360.47;5078963;28;19950;-72